Flight Track Log - Related Links

Times and Time Zones

All times are in EDT time to prevent confusion due to time zone crossing. See the BER8565 flight status page for this flight to view local times or setup timezone preferences in your user account.

Time Position Orientation Groundspeed Altitude Reporting Facility
EDT Latitude Longitude Course Direction KTS MPH feet Rate Location/Type
Fri 03:11:15 PM 42.4605 2.5397 17° North  Level Estimated
Fri 03:12:15 PM 42.5554 2.5781 17° North  Level Estimated
Fri 03:13:15 PM 42.6502 2.6166 17° North  Level Estimated
Fri 03:14:15 PM 42.7451 2.6552 17° North  Level Estimated
Fri 03:15:15 PM 42.8399 2.6940 17° North  Level Estimated
Fri 03:16:15 PM 42.9348 2.7329 17° North  Level Estimated
Fri 03:17:15 PM 43.0296 2.7719 17° North  Level Estimated
Fri 03:18:15 PM 43.1244 2.8110 17° North  Level Estimated
Fri 03:19:15 PM 43.2192 2.8502 17° North  Level Estimated
Fri 03:20:15 PM 43.3140 2.8896 17° North  Level Estimated
Fri 03:21:15 PM 43.4088 2.9291 17° North  Level Estimated
Fri 03:22:15 PM 43.5035 2.9687 17° North  Level Estimated
Fri 03:23:15 PM 43.5983 3.0084 17° North  Level Estimated
Fri 03:24:15 PM 43.6930 3.0483 17° North  Level Estimated
Fri 03:25:15 PM 43.7877 3.0883 17° North  Level Estimated
Fri 03:26:15 PM 43.8824 3.1284 17° North  Level Estimated
Fri 03:27:15 PM 43.9771 3.1686 17° North  Level Estimated
Fri 03:28:15 PM 44.0718 3.2090 17° North  Level Estimated
Fri 03:29:15 PM 44.1664 3.2495 17° North  Level Estimated
Fri 03:30:15 PM 44.2611 3.2901 17° North  Level Estimated
Fri 03:31:15 PM 44.3557 3.3308 17° North  Level Estimated
Fri 03:32:15 PM 44.4503 3.3717 17° North  Level Estimated
Fri 03:33:15 PM 44.5449 3.4128 17° North  Level Estimated
Fri 03:34:15 PM 44.6395 3.4539 17° North  Level Estimated
Fri 03:35:15 PM 44.7341 3.4952 17° North  Level Estimated
Fri 03:36:15 PM 44.8286 3.5366 17° North  Level Estimated
Fri 03:37:15 PM 44.9231 3.5782 17° North  Level Estimated
Fri 03:38:15 PM 45.0177 3.6199 17° North  Level Estimated
Fri 03:39:15 PM 45.1122 3.6617 17° North  Level Estimated
Fri 03:40:15 PM 45.2067 3.7037 17° North  Level Estimated
Fri 03:41:15 PM 45.3012 3.7458 17° North  Level Estimated
Fri 03:42:15 PM 45.3956 3.7880 17° North  Level Estimated
Fri 03:43:15 PM 45.4901 3.8304 17° North  Level Estimated
Fri 03:44:15 PM 45.5845 3.8730 18° North  Level Estimated
Fri 03:45:15 PM 45.6789 3.9156 18° North  Level Estimated
Fri 03:46:15 PM 45.7733 3.9585 18° North  Level Estimated
Fri 03:47:15 PM 45.8677 4.0014 18° North  Level Estimated
Fri 03:48:15 PM 45.9621 4.0445 18° North  Level Estimated
Fri 03:49:15 PM 46.0564 4.0878 18° North  Level Estimated
Fri 03:50:15 PM 46.1508 4.1312 18° North  Level Estimated
Fri 03:51:15 PM 46.2451 4.1748 18° North  Level Estimated
Fri 03:52:15 PM 46.3394 4.2185 18° North  Level Estimated
Fri 03:53:15 PM 46.4337 4.2624 18° North  Level Estimated
Fri 03:54:15 PM 46.5279 4.3064 18° North  Level Estimated
Fri 03:55:15 PM 46.6222 4.3505 18° North  Level Estimated
Fri 03:56:15 PM 46.7164 4.3948 18° North  Level Estimated
Fri 03:57:15 PM 46.8106 4.4393 18° North  Level Estimated
Fri 03:58:15 PM 46.9048 4.4840 18° North  Level Estimated
Fri 03:59:15 PM 46.9990 4.5287 18° North  Level Estimated
Fri 04:00:15 PM 47.0932 4.5737 18° North  Level Estimated
Fri 04:01:15 PM 47.1873 4.6188 18° North  Level Estimated
Fri 04:02:15 PM 47.2815 4.6641 18° North  Level Estimated
Fri 04:03:15 PM 47.3756 4.7095 18° North  Level Estimated
Fri 04:04:15 PM 47.4697 4.7551 18° North  Level Estimated
Fri 04:05:15 PM 47.5638 4.8008 18° North  Level Estimated
Fri 04:06:15 PM 47.6578 4.8468 18° North  Level Estimated
Fri 04:07:15 PM 47.7519 4.8928 18° North  Level Estimated
Fri 04:08:15 PM 47.8459 4.9391 18° North  Level Estimated
Fri 04:09:15 PM 47.9399 4.9855 18° North  Level Estimated
Fri 04:10:15 PM 48.0339 5.0321 18° North  Level Estimated
Fri 04:11:15 PM 48.1278 5.0789 18° North  Level Estimated
Fri 04:12:15 PM 48.2218 5.1258 18° North  Level Estimated
Fri 04:13:15 PM 48.3157 5.1729 18° North  Level Estimated
Fri 04:14:15 PM 48.4096 5.2202 19° North  Level Estimated
Fri 04:15:15 PM 48.5035 5.2676 19° North  Level Estimated
Fri 04:16:15 PM 48.5974 5.3153 19° North  Level Estimated
Fri 04:17:15 PM 48.6912 5.3631 19° North  Level Estimated
Fri 04:18:15 PM 48.7850 5.4110 19° North  Level Estimated
Fri 04:19:15 PM 48.8789 5.4592 19° North  Level Estimated
Fri 04:20:15 PM 48.9726 5.5075 19° North  Level Estimated
Fri 04:21:15 PM 49.0664 5.5561 19° North  Level Estimated
Fri 04:22:15 PM 49.1602 5.6048 19° North  Level Estimated
Fri 04:23:15 PM 49.2539 5.6537 19° North  Level Estimated
Fri 04:24:15 PM 49.3476 5.7028 19° North  Level Estimated
Fri 04:25:15 PM 49.4413 5.7520 19° North  Level Estimated
Fri 04:26:15 PM 49.5350 5.8015 19° North  Level Estimated
Fri 04:27:15 PM 49.6286 5.8511 19° North  Level Estimated
Fri 04:28:15 PM 49.7222 5.9010 19° North  Level Estimated
Fri 04:29:15 PM 49.8158 5.9510 19° North  Level Estimated
Fri 04:30:15 PM 49.9094 6.0012 19° North  Level Estimated
Fri 04:31:15 PM 50.0030 6.0516 19° North  Level Estimated
Fri 04:32:15 PM 50.0965 6.1022 19° North  Level Estimated
Fri 04:33:15 PM 50.1900 6.1530 19° North  Level Estimated
Fri 04:34:15 PM 50.2835 6.2041 19° North  Level Estimated
Fri 04:35:15 PM 50.3770 6.2553 19° North  Level Estimated
Fri 04:36:15 PM 50.4704 6.3067 19° North  Level Estimated
Fri 04:37:15 PM 50.5639 6.3583 19° North  Level Estimated
Fri 04:38:15 PM 50.6573 6.4101 19° North  Level Estimated
Fri 04:39:15 PM 50.7506 6.4622 19° North  Level Estimated
Fri 04:40:15 PM 50.8440 6.5144 19° North  Level Estimated
Fri 04:41:15 PM 50.9373 6.5669 20° North  Level Estimated
Fri 04:42:15 PM 51.0306 6.6195 20° North  Level Estimated
Fri 04:43:15 PM 51.1239 6.6724 20° North  Level Estimated
Fri 04:44:15 PM 51.2172 6.7255 20° North  Level Estimated
Fri 04:45:15 PM 51.3104 6.7788 200° South  Level Estimated
Fri 04:46:15 PM 51.2172 6.7255 20° North  Level Estimated
Fri 04:47:15 PM 51.3104 6.7788 200° South  Level Estimated
Fri 04:48:15 PM 51.2172 6.7255 20° North  Level Estimated
Fri 04:49:15 PM 51.3104 6.7788 20° North  Level Estimated

Login

Don't have an account? Register now (free) for customized features, flight alerts, and more!